createdAt,value
2024-01-11T07:25:46.454Z,100.00
2024-01-11T07:28:13.265Z,100.00
2024-01-11T07:30:40.498Z,100.00
2024-01-11T07:33:08.118Z,100.00
2024-01-11T07:35:35.578Z,100.00
2024-01-11T07:38:02.423Z,100.00
2024-01-11T07:40:29.401Z,100.00
2024-01-11T07:42:56.029Z,100.00
2024-01-11T07:45:22.850Z,100.00
2024-01-11T07:47:49.734Z,100.00
2024-01-11T07:50:16.428Z,100.00
2024-01-11T07:52:43.101Z,100.00
2024-01-11T07:55:11.135Z,100.00
2024-01-11T07:57:37.936Z,100.00
2024-01-11T08:00:07.127Z,100.00
2024-01-11T08:02:39.829Z,100.00
2024-01-11T08:05:06.771Z,100.00
2024-01-11T08:07:33.637Z,100.00
2024-01-11T08:14:28.193Z,100.00
2024-01-11T08:16:55.057Z,100.00
2024-01-11T08:19:21.948Z,100.00
2024-01-11T08:21:48.809Z,100.00
2024-01-11T08:24:15.500Z,100.00
2024-01-11T08:26:42.290Z,100.00
2024-01-11T08:29:09.972Z,100.00
2024-01-11T08:31:39.353Z,99.88
2024-01-11T08:34:10.285Z,99.74
2024-01-11T08:36:38.855Z,99.56
2024-01-11T08:39:13.044Z,100.00
2024-01-11T08:41:39.598Z,100.00
2024-01-11T08:44:06.399Z,99.94
2024-01-11T08:46:36.116Z,99.47
2024-01-11T08:49:04.002Z,99.03
2024-01-11T08:51:31.040Z,98.23
2024-01-11T08:54:02.744Z,98.54
2024-01-11T08:56:31.874Z,98.37
2024-01-11T08:59:00.606Z,98.35
2024-01-11T09:01:30.000Z,98.25
2024-01-11T09:03:56.602Z,97.95
2024-01-11T09:06:23.152Z,97.79
2024-01-11T09:08:49.742Z,97.90
2024-01-11T09:11:17.230Z,97.45
2024-01-11T09:13:44.119Z,97.67
2024-01-11T09:16:14.432Z,97.10
2024-01-11T09:18:44.636Z,97.04
2024-01-11T09:21:12.741Z,96.69
2024-01-11T09:23:39.639Z,96.61
2024-01-11T09:26:06.666Z,96.34
2024-01-11T09:28:33.210Z,96.38
2024-01-11T09:31:00.613Z,96.01
2024-01-11T09:33:27.632Z,95.50
2024-01-11T09:35:55.482Z,94.74
2024-01-11T09:38:22.977Z,94.27
2024-01-11T09:41:22.385Z,94.30
2024-01-11T09:43:54.920Z,94.25
2024-01-11T09:46:24.828Z,93.49
2024-01-11T09:48:51.457Z,93.20
2024-01-11T09:51:18.199Z,93.27
2024-01-11T09:53:44.944Z,92.38
2024-01-11T09:56:11.824Z,91.24
2024-01-11T09:58:39.363Z,90.96
2024-01-11T10:01:09.839Z,90.80
2024-01-11T10:03:37.333Z,91.31
2024-01-11T10:06:04.814Z,91.82
2024-01-11T10:08:31.513Z,92.53
2024-01-11T10:10:58.293Z,93.03
2024-01-11T10:13:29.140Z,93.64
2024-01-11T10:16:24.959Z,93.69
2024-01-11T10:18:54.346Z,93.59
2024-01-11T10:21:21.548Z,93.32
2024-01-11T10:23:49.398Z,93.14
2024-01-11T10:26:16.479Z,93.21
2024-01-11T10:28:45.272Z,92.78
2024-01-11T10:31:12.472Z,92.39
2024-01-11T10:33:39.340Z,92.06
2024-01-11T10:36:10.422Z,92.23
2024-01-11T10:38:39.417Z,92.34
2024-01-11T10:41:07.294Z,92.57
2024-01-11T10:43:37.541Z,92.72
2024-01-11T10:46:07.285Z,93.27
2024-01-11T10:48:44.124Z,93.30
2024-01-11T10:51:13.013Z,93.66
2024-01-11T10:53:46.472Z,93.92
2024-01-11T10:56:14.143Z,94.36
2024-01-11T10:58:41.532Z,94.01
2024-01-11T11:01:08.795Z,94.30
2024-01-11T11:03:36.096Z,94.46
2024-01-11T11:06:03.173Z,93.95
2024-01-11T11:08:30.065Z,93.07
2024-01-11T11:10:57.960Z,92.24
2024-01-11T11:13:25.252Z,92.28
2024-01-11T11:15:59.457Z,92.36
2024-01-11T11:18:28.602Z,92.43
2024-01-11T11:20:56.016Z,92.68
2024-01-11T11:23:22.750Z,93.16
2024-01-11T11:25:49.588Z,93.09
2024-01-11T11:28:16.818Z,92.84
2024-01-11T11:30:48.513Z,93.13
2024-01-11T11:33:19.712Z,93.50
2024-01-11T11:35:47.339Z,93.74
2024-01-11T11:38:23.612Z,94.05
2024-01-11T11:40:51.742Z,94.24
2024-01-11T11:43:18.893Z,94.22
2024-01-11T11:45:46.498Z,95.30
2024-01-11T11:48:39.445Z,95.95
2024-01-11T11:51:14.128Z,96.22
2024-01-11T11:53:43.041Z,96.23
2024-01-11T11:56:11.207Z,96.53
2024-01-11T11:58:39.757Z,96.41
2024-01-11T12:01:06.868Z,96.40
2024-01-11T12:03:36.556Z,96.08
2024-01-11T12:06:04.019Z,95.73
2024-01-11T12:08:31.593Z,95.22
2024-01-11T12:10:58.515Z,95.67
2024-01-11T12:13:25.500Z,95.56
2024-01-11T12:15:52.234Z,95.76
2024-01-11T12:18:19.334Z,95.46
2024-01-11T12:20:46.091Z,95.92
2024-01-11T12:23:14.483Z,96.16
2024-01-11T12:25:41.581Z,96.67
2024-01-11T12:28:08.490Z,96.97
2024-01-11T12:30:35.492Z,97.30
2024-01-11T12:33:02.530Z,97.81
2024-01-11T12:35:30.722Z,97.99
2024-01-11T12:38:07.208Z,98.09
2024-01-11T12:40:40.681Z,97.90
2024-01-11T12:43:08.219Z,98.02
2024-01-11T12:45:35.836Z,98.41
2024-01-11T12:48:04.041Z,98.82
2024-01-11T12:50:34.301Z,99.08
2024-01-11T12:53:07.550Z,99.51
2024-01-11T12:55:38.665Z,99.79
2024-01-11T12:58:12.032Z,99.80
2024-01-11T13:00:39.443Z,99.97
2024-01-11T13:03:06.368Z,100.00
2024-01-11T13:05:35.953Z,100.00
2024-01-11T13:08:04.515Z,100.00
2024-01-11T13:10:31.828Z,100.00
2024-01-11T13:13:03.489Z,100.00
2024-01-11T13:15:36.908Z,100.00
2024-01-11T13:18:06.062Z,100.00
2024-01-11T13:20:33.126Z,100.00
2024-01-11T13:23:13.041Z,100.00
2024-01-11T13:25:43.547Z,100.00
2024-01-11T13:28:11.891Z,100.00
2024-01-11T13:30:39.969Z,100.00
2024-01-11T13:33:08.530Z,100.00
2024-01-11T13:35:36.153Z,100.00
2024-01-11T13:38:03.427Z,100.00
2024-01-11T13:40:30.852Z,100.00
2024-01-11T13:42:58.037Z,100.00
2024-01-11T13:45:28.653Z,100.00
2024-01-11T13:47:55.555Z,100.00
2024-01-11T13:50:25.506Z,100.00
2024-01-11T13:52:52.745Z,100.00
2024-01-11T13:55:21.729Z,100.00
2024-01-11T13:57:51.604Z,100.00
2024-01-11T14:00:19.077Z,100.00
2024-01-11T14:02:46.585Z,100.00
2024-01-11T14:05:14.404Z,100.00
2024-01-11T14:07:41.781Z,100.00
2024-01-11T14:10:12.353Z,100.00
2024-01-11T14:12:39.514Z,100.00
2024-01-11T14:15:07.189Z,100.00
2024-01-11T14:17:34.294Z,100.00
2024-01-11T14:20:02.044Z,100.00
2024-01-11T14:22:29.530Z,100.00
2024-01-11T14:24:56.258Z,100.00
2024-01-11T14:27:23.576Z,100.00
2024-01-11T14:29:50.413Z,100.00
2024-01-11T14:32:25.577Z,100.00
2024-01-11T14:35:04.479Z,100.00
2024-01-11T14:37:32.422Z,100.00
2024-01-11T14:39:59.827Z,100.00
2024-01-11T14:42:27.274Z,100.00
2024-01-11T14:44:54.230Z,100.00
2024-01-11T14:47:21.823Z,100.00
2024-01-11T14:49:48.671Z,100.00
2024-01-11T14:52:17.948Z,100.00
2024-01-11T14:54:45.978Z,100.00
2024-01-11T14:57:13.850Z,100.00
2024-01-11T14:59:40.719Z,100.00
2024-01-11T15:02:07.856Z,100.00
2024-01-11T15:04:34.778Z,100.00
2024-01-11T15:07:01.697Z,100.00
2024-01-11T15:09:29.429Z,100.00
2024-01-11T15:11:56.409Z,100.00
2024-01-11T15:14:23.323Z,100.00
2024-01-11T15:16:50.887Z,100.00
2024-01-11T15:19:18.016Z,100.00
2024-01-11T15:21:49.290Z,100.00
